createdAt,value
2022-09-09T00:01:39.183Z,13.40
2022-09-09T00:04:34.850Z,13.40
2022-09-09T00:07:19.821Z,13.40
2022-09-09T00:10:04.174Z,13.30
2022-09-09T00:12:45.837Z,13.30
2022-09-09T00:15:15.327Z,13.30
2022-09-09T00:18:01.175Z,13.20
2022-09-09T00:20:44.160Z,13.30
2022-09-09T00:23:21.706Z,13.30
2022-09-09T00:26:02.508Z,13.30
2022-09-09T00:28:33.222Z,13.30
2022-09-09T00:31:14.116Z,13.30
2022-09-09T00:33:42.457Z,13.20
2022-09-09T00:36:23.815Z,13.20
2022-09-09T00:38:56.333Z,13.20
2022-09-09T00:41:29.909Z,13.20
2022-09-09T00:44:16.661Z,13.20
2022-09-09T00:47:13.049Z,13.20
2022-09-09T00:50:01.641Z,13.20
2022-09-09T00:52:53.085Z,13.20
2022-09-09T00:55:29.599Z,13.20
2022-09-09T00:57:57.066Z,13.20
2022-09-09T01:00:50.397Z,13.20
2022-09-09T01:03:37.183Z,13.20
2022-09-09T01:06:12.896Z,13.30
2022-09-09T01:09:08.221Z,13.40
2022-09-09T01:11:58.082Z,13.40
2022-09-09T01:14:40.912Z,13.50
2022-09-09T01:17:18.371Z,13.50
2022-09-09T01:19:45.080Z,13.60
2022-09-09T01:23:00.276Z,13.60
2022-09-09T01:25:45.172Z,13.60
2022-09-09T01:28:19.067Z,13.70
2022-09-09T01:30:45.940Z,13.70
2022-09-09T01:33:16.949Z,13.70
2022-09-09T01:35:52.143Z,13.70
2022-09-09T01:38:19.577Z,13.70
2022-09-09T01:40:46.494Z,13.70
2022-09-09T01:43:13.748Z,13.80
2022-09-09T01:45:43.349Z,13.70
2022-09-09T01:48:10.246Z,13.80
2022-09-09T01:50:37.061Z,13.80
2022-09-09T01:53:04.505Z,13.70
2022-09-09T01:55:35.923Z,13.80
2022-09-09T01:58:12.834Z,13.80
2022-09-09T02:00:49.877Z,13.70
2022-09-09T02:03:28.817Z,13.80
2022-09-09T02:06:04.402Z,13.80
2022-09-09T02:08:44.506Z,13.70
2022-09-09T02:11:15.452Z,13.80
2022-09-09T02:13:44.141Z,13.70
2022-09-09T02:16:16.504Z,13.70
2022-09-09T02:18:55.907Z,13.70
2022-09-09T02:21:24.242Z,13.70
2022-09-09T02:23:54.045Z,13.60
2022-09-09T02:26:24.307Z,13.60
2022-09-09T02:28:53.926Z,13.60
2022-09-09T02:31:23.596Z,13.60
2022-09-09T02:33:59.796Z,13.60
2022-09-09T02:36:30.455Z,13.60
2022-09-09T02:38:57.815Z,13.60
2022-09-09T02:41:29.830Z,13.60
2022-09-09T02:43:57.896Z,13.60
2022-09-09T02:46:29.969Z,13.70
2022-09-09T02:49:03.011Z,13.70
2022-09-09T02:51:42.095Z,13.70
2022-09-09T02:54:22.101Z,13.70
2022-09-09T02:56:57.273Z,13.80
2022-09-09T02:59:26.124Z,13.80
2022-09-09T03:01:54.275Z,13.80
2022-09-09T03:04:21.578Z,13.80
2022-09-09T03:06:51.365Z,13.80
2022-09-09T03:09:18.135Z,13.90
2022-09-09T03:11:45.048Z,13.80
2022-09-09T03:14:12.332Z,13.80
2022-09-09T03:16:39.235Z,13.80
2022-09-09T03:19:07.240Z,13.80
2022-09-09T03:21:34.164Z,13.80
2022-09-09T03:24:04.248Z,13.80
2022-09-09T03:26:32.731Z,13.80
2022-09-09T03:29:01.377Z,13.80
2022-09-09T03:31:31.159Z,13.80
2022-09-09T03:34:01.282Z,13.70
2022-09-09T03:36:29.104Z,13.70
2022-09-09T03:38:56.033Z,13.70
2022-09-09T03:41:24.901Z,13.70
2022-09-09T03:43:55.144Z,13.70
2022-09-09T03:46:24.353Z,13.60
2022-09-09T03:48:53.094Z,13.60
2022-09-09T03:51:20.334Z,13.60
2022-09-09T03:53:47.550Z,13.60
2022-09-09T03:56:15.352Z,13.60
2022-09-09T03:58:42.160Z,13.60
2022-09-09T04:01:14.394Z,13.60
2022-09-09T04:03:41.861Z,13.60
2022-09-09T04:06:11.341Z,13.60
2022-09-09T04:08:39.670Z,13.70
2022-09-09T04:11:07.471Z,13.60
2022-09-09T04:13:36.501Z,13.70
2022-09-09T04:16:04.891Z,13.70
2022-09-09T04:18:32.703Z,13.70
2022-09-09T04:20:59.620Z,13.70
2022-09-09T04:23:29.778Z,13.70
2022-09-09T04:25:57.904Z,13.70
2022-09-09T04:28:26.807Z,13.70
2022-09-09T04:30:53.580Z,13.70
2022-09-09T04:33:20.776Z,13.70
2022-09-09T04:35:49.502Z,13.70
2022-09-09T04:38:17.747Z,13.70
2022-09-09T04:40:48.429Z,13.70
2022-09-09T04:43:16.499Z,13.70
2022-09-09T04:45:44.370Z,13.70
2022-09-09T04:48:11.211Z,13.70
2022-09-09T04:50:38.026Z,13.70
2022-09-09T04:53:06.244Z,13.70
2022-09-09T04:55:34.142Z,13.60
2022-09-09T04:58:06.104Z,13.60
2022-09-09T05:00:34.896Z,13.60
2022-09-09T05:03:05.153Z,13.60
2022-09-09T05:05:32.632Z,13.60
2022-09-09T05:08:06.992Z,13.60
2022-09-09T05:10:35.173Z,13.60
2022-09-09T05:13:01.948Z,13.60
2022-09-09T05:15:28.731Z,13.60
2022-09-09T05:18:00.241Z,13.60
2022-09-09T05:20:27.591Z,13.60
2022-09-09T05:22:55.673Z,13.60
2022-09-09T05:25:23.197Z,13.60
2022-09-09T05:27:50.625Z,13.60
2022-09-09T05:30:19.820Z,13.50
2022-09-09T05:32:47.552Z,13.60
2022-09-09T05:35:14.555Z,13.60
2022-09-09T05:37:41.398Z,13.60
2022-09-09T05:40:09.263Z,13.60
2022-09-09T05:42:36.145Z,13.60
2022-09-09T05:45:02.942Z,13.60
2022-09-09T05:47:30.123Z,13.60
2022-09-09T05:49:56.986Z,13.60
2022-09-09T05:52:24.860Z,13.60
2022-09-09T05:54:51.691Z,13.60
2022-09-09T05:57:20.398Z,13.60
2022-09-09T05:59:47.377Z,13.70
2022-09-09T06:02:14.625Z,13.70
2022-09-09T06:04:41.491Z,13.80
2022-09-09T06:07:08.478Z,13.90
2022-09-09T06:09:35.256Z,13.90
2022-09-09T06:12:02.177Z,14.00
2022-09-09T06:14:29.100Z,14.00
2022-09-09T06:16:55.840Z,14.00
2022-09-09T06:19:22.739Z,14.00
2022-09-09T06:21:50.055Z,14.10
2022-09-09T06:24:18.393Z,14.10
2022-09-09T06:26:46.545Z,14.10
2022-09-09T06:29:13.477Z,14.10
2022-09-09T06:31:40.412Z,14.10
2022-09-09T06:34:08.956Z,14.10
2022-09-09T06:36:38.127Z,14.20
2022-09-09T06:39:08.773Z,14.20
2022-09-09T06:41:39.280Z,14.20
2022-09-09T06:44:06.114Z,14.30
2022-09-09T06:46:34.151Z,14.30
2022-09-09T06:49:01.761Z,14.30
2022-09-09T06:51:31.551Z,14.30
2022-09-09T06:54:00.612Z,14.30
2022-09-09T06:56:29.867Z,14.40
2022-09-09T06:58:59.497Z,14.40
2022-09-09T07:01:29.313Z,14.40
2022-09-09T07:03:58.522Z,14.50
2022-09-09T07:06:27.979Z,14.60
2022-09-09T07:08:57.161Z,14.60
2022-09-09T07:11:27.828Z,14.70
2022-09-09T07:13:55.509Z,14.70
2022-09-09T07:16:28.432Z,14.80
2022-09-09T07:18:59.005Z,14.90
2022-09-09T07:21:28.010Z,15.00
2022-09-09T07:23:55.627Z,15.10
2022-09-09T07:26:24.825Z,15.20
2022-09-09T07:28:53.379Z,15.30
2022-09-09T07:31:35.686Z,15.40
2022-09-09T07:34:03.569Z,15.50
2022-09-09T07:36:35.561Z,15.50
2022-09-09T07:39:05.081Z,15.60
2022-09-09T07:41:44.863Z,15.60
2022-09-09T07:44:14.892Z,15.70
2022-09-09T07:46:42.705Z,15.70
2022-09-09T07:49:11.036Z,15.80
2022-09-09T07:51:43.487Z,15.90
2022-09-09T07:54:14.010Z,15.90
2022-09-09T07:56:42.177Z,15.90
2022-09-09T07:59:09.817Z,16.00
2022-09-09T08:01:40.370Z,16.00
2022-09-09T08:04:16.115Z,16.10
2022-09-09T08:06:47.315Z,16.20
2022-09-09T08:09:14.496Z,16.40
2022-09-09T08:11:42.176Z,16.50
2022-09-09T08:14:10.491Z,16.50
2022-09-09T08:16:41.320Z,16.60
2022-09-09T08:19:08.552Z,16.80
2022-09-09T08:21:38.487Z,17.20
2022-09-09T08:24:08.947Z,17.80
2022-09-09T08:26:44.630Z,18.50
2022-09-09T08:29:14.086Z,19.10
2022-09-09T08:31:45.417Z,19.40
2022-09-09T08:34:12.549Z,19.50
2022-09-09T08:36:43.326Z,19.40
2022-09-09T08:39:12.049Z,19.30
2022-09-09T08:42:01.693Z,19.50
2022-09-09T08:44:59.356Z,19.80
2022-09-09T08:47:50.307Z,20.00
2022-09-09T08:50:26.283Z,19.80
2022-09-09T08:52:56.509Z,19.50
2022-09-09T08:55:37.725Z,19.40
2022-09-09T08:58:15.518Z,19.30
2022-09-09T09:01:11.758Z,19.00
2022-09-09T09:04:03.493Z,18.70
2022-09-09T09:06:39.156Z,18.60
2022-09-09T09:09:08.988Z,18.50
2022-09-09T09:11:41.629Z,18.40
2022-09-09T09:14:24.445Z,18.40
2022-09-09T09:17:06.448Z,18.50
2022-09-09T09:19:35.810Z,18.90
2022-09-09T09:22:20.993Z,19.60
2022-09-09T09:24:53.932Z,19.90
2022-09-09T09:27:40.151Z,19.80
2022-09-09T09:30:28.696Z,19.50
2022-09-09T09:33:02.678Z,19.50
2022-09-09T09:35:29.971Z,20.50
2022-09-09T09:40:59.072Z,22.40
2022-09-09T09:43:31.766Z,22.90
2022-09-09T09:46:17.999Z,22.80
2022-09-09T09:48:47.304Z,22.50
2022-09-09T09:51:17.576Z,22.50
2022-09-09T09:53:44.643Z,23.10
2022-09-09T09:56:14.264Z,23.80
2022-09-09T09:58:51.111Z,24.90
2022-09-09T10:01:36.942Z,26.10
2022-09-09T10:04:21.256Z,27.10
2022-09-09T10:06:48.542Z,27.10
2022-09-09T10:09:28.175Z,26.50
2022-09-09T10:12:32.640Z,25.70
2022-09-09T10:15:07.098Z,24.60
2022-09-09T10:17:56.151Z,23.80
2022-09-09T10:20:36.238Z,23.30
2022-09-09T10:23:41.813Z,22.90
2022-09-09T10:26:27.279Z,22.80
2022-09-09T10:29:03.063Z,22.70
2022-09-09T10:31:58.071Z,22.50
2022-09-09T10:34:43.298Z,22.40
2022-09-09T10:37:23.653Z,22.50
2022-09-09T10:39:59.250Z,22.80
2022-09-09T10:42:31.887Z,23.10
2022-09-09T10:45:24.418Z,23.80
2022-09-09T10:48:03.022Z,25.00
2022-09-09T10:51:00.523Z,26.30
2022-09-09T10:53:39.721Z,27.10
2022-09-09T10:56:15.916Z,28.00
2022-09-09T10:58:44.952Z,28.00
2022-09-09T11:01:25.687Z,27.70
2022-09-09T11:04:14.806Z,27.70
2022-09-09T11:06:47.557Z,28.20
2022-09-09T11:09:19.594Z,28.60
2022-09-09T11:11:55.916Z,28.10
2022-09-09T11:14:44.575Z,27.40
2022-09-09T11:17:21.494Z,27.10
2022-09-09T11:19:48.526Z,26.60
2022-09-09T11:22:30.686Z,25.70
2022-09-09T11:25:20.172Z,24.70
2022-09-09T11:28:06.271Z,24.20
2022-09-09T11:31:22.137Z,24.20
2022-09-09T11:34:15.237Z,24.70
2022-09-09T11:37:05.986Z,24.60
2022-09-09T11:40:17.430Z,24.40
2022-09-09T11:42:44.568Z,24.90
2022-09-09T11:45:25.430Z,25.90
2022-09-09T11:47:57.516Z,26.20
2022-09-09T11:50:31.519Z,26.10
2022-09-09T11:53:13.539Z,25.70
2022-09-09T11:55:40.693Z,25.20
2022-09-09T11:58:20.189Z,24.80
2022-09-09T12:00:51.380Z,24.20
2022-09-09T12:03:48.059Z,23.60
2022-09-09T12:06:33.944Z,23.10
2022-09-09T12:09:41.976Z,23.00
2022-09-09T12:12:14.938Z,23.20
2022-09-09T12:14:57.864Z,23.30
2022-09-09T12:17:26.448Z,23.50
2022-09-09T12:20:11.930Z,23.60
2022-09-09T12:23:00.700Z,24.20
2022-09-09T12:25:52.474Z,25.40
2022-09-09T12:28:28.909Z,26.90
2022-09-09T12:31:19.069Z,28.00
2022-09-09T12:33:48.516Z,29.00
2022-09-09T12:36:29.427Z,28.90
2022-09-09T12:38:59.370Z,28.00
2022-09-09T12:41:27.994Z,27.00
2022-09-09T12:44:10.120Z,26.20
2022-09-09T12:46:39.268Z,25.40
2022-09-09T12:49:07.481Z,24.70
2022-09-09T12:51:35.199Z,24.00
2022-09-09T12:54:02.150Z,23.40
2022-09-09T12:56:32.453Z,22.50
2022-09-09T12:58:59.820Z,21.60
2022-09-09T13:01:28.017Z,21.50
2022-09-09T13:03:55.796Z,22.10
2022-09-09T13:06:33.546Z,23.30
2022-09-09T13:09:02.820Z,24.70
2022-09-09T13:11:39.888Z,25.90
2022-09-09T13:14:07.492Z,26.40
2022-09-09T13:16:41.856Z,26.00
2022-09-09T13:19:19.336Z,25.20
2022-09-09T13:21:46.317Z,24.30
2022-09-09T13:24:32.525Z,23.20
2022-09-09T13:27:04.708Z,22.30
2022-09-09T13:29:33.486Z,21.40
2022-09-09T13:32:08.837Z,20.60
2022-09-09T13:34:37.047Z,19.80
2022-09-09T13:37:17.021Z,19.30
2022-09-09T13:39:54.307Z,19.10
2022-09-09T13:42:27.555Z,19.10
2022-09-09T13:44:56.576Z,19.30
2022-09-09T13:47:33.017Z,19.70
2022-09-09T13:49:59.965Z,20.40
2022-09-09T13:52:31.951Z,21.00
2022-09-09T13:55:00.315Z,21.30
2022-09-09T13:57:27.184Z,21.30
2022-09-09T14:00:06.151Z,21.20
2022-09-09T14:02:34.775Z,21.20
2022-09-09T14:05:01.931Z,21.00
2022-09-09T14:07:29.427Z,21.10
2022-09-09T14:09:56.595Z,21.10
2022-09-09T14:12:23.388Z,21.00
2022-09-09T14:14:50.948Z,20.90
2022-09-09T14:17:18.586Z,20.70
2022-09-09T14:19:46.985Z,20.40
2022-09-09T14:22:13.778Z,20.10
2022-09-09T14:24:40.581Z,19.80
2022-09-09T14:27:07.586Z,19.40
2022-09-09T14:29:34.540Z,19.10
2022-09-09T14:32:01.979Z,18.90
2022-09-09T14:34:28.928Z,18.60
2022-09-09T14:36:55.719Z,18.50
2022-09-09T14:39:22.505Z,18.50
2022-09-09T14:41:49.272Z,18.40
2022-09-09T14:44:17.092Z,18.50
2022-09-09T14:46:43.868Z,18.60
2022-09-09T14:49:13.827Z,18.70
2022-09-09T14:51:40.736Z,18.80
2022-09-09T14:54:07.574Z,18.90
2022-09-09T14:56:37.709Z,19.10
2022-09-09T14:59:05.403Z,19.10
2022-09-09T15:01:33.162Z,19.20
2022-09-09T15:04:02.769Z,19.20
2022-09-09T15:06:33.993Z,19.20
2022-09-09T15:09:01.368Z,19.00
2022-09-09T15:11:31.398Z,19.10
2022-09-09T15:13:59.340Z,19.10
2022-09-09T15:16:28.718Z,19.10
2022-09-09T15:18:59.141Z,19.10
2022-09-09T15:21:28.834Z,19.10
2022-09-09T15:23:56.393Z,19.20
2022-09-09T15:26:23.305Z,19.20
2022-09-09T15:28:51.754Z,19.30
2022-09-09T15:31:27.212Z,19.30
2022-09-09T15:34:01.979Z,19.40
2022-09-09T15:36:32.984Z,19.30
2022-09-09T15:39:05.044Z,19.20
2022-09-09T15:41:35.404Z,19.10
2022-09-09T15:44:02.493Z,19.00
2022-09-09T15:46:38.543Z,18.90
2022-09-09T15:49:20.590Z,18.80
2022-09-09T15:51:53.021Z,18.80
2022-09-09T15:54:24.288Z,18.70
2022-09-09T15:56:55.838Z,18.60
2022-09-09T15:59:28.759Z,18.60
2022-09-09T16:01:56.196Z,18.50
2022-09-09T16:04:24.605Z,18.40
2022-09-09T16:06:56.833Z,18.40
2022-09-09T16:09:23.585Z,18.30
2022-09-09T16:11:50.551Z,18.30
2022-09-09T16:14:17.352Z,18.30
2022-09-09T16:16:44.436Z,18.30
2022-09-09T16:19:13.649Z,18.30
2022-09-09T16:21:51.398Z,18.20
2022-09-09T16:24:20.598Z,18.20
2022-09-09T16:26:50.209Z,18.20
2022-09-09T16:29:19.030Z,18.20
2022-09-09T16:31:47.755Z,18.20
2022-09-09T16:34:16.066Z,18.20
2022-09-09T16:36:45.006Z,18.10
2022-09-09T16:39:17.587Z,18.10
2022-09-09T16:41:45.947Z,18.20
2022-09-09T16:44:14.185Z,18.10
2022-09-09T16:46:43.877Z,18.10
2022-09-09T16:49:13.695Z,18.10
2022-09-09T16:51:43.038Z,18.10
2022-09-09T16:54:10.870Z,18.20
2022-09-09T16:56:42.186Z,18.20
2022-09-09T16:59:21.711Z,18.10
2022-09-09T17:01:51.742Z,18.10
2022-09-09T17:04:21.811Z,18.10
2022-09-09T17:06:54.199Z,18.10
2022-09-09T17:09:23.526Z,18.00
2022-09-09T17:11:53.066Z,18.00
2022-09-09T17:14:21.930Z,18.00
2022-09-09T17:16:49.319Z,18.00
2022-09-09T17:19:16.947Z,18.00
2022-09-09T17:22:05.812Z,18.00
2022-09-09T17:24:30.652Z,18.00
2022-09-09T17:26:58.563Z,17.90
2022-09-09T17:29:26.355Z,17.90
2022-09-09T17:31:53.265Z,17.90
2022-09-09T17:34:20.256Z,17.80
2022-09-09T17:36:47.385Z,17.80
2022-09-09T17:39:14.381Z,17.80
2022-09-09T17:41:41.739Z,17.70
2022-09-09T17:44:10.573Z,17.70
2022-09-09T17:46:41.511Z,17.70
2022-09-09T17:49:11.492Z,17.60
2022-09-09T17:51:39.015Z,17.60
2022-09-09T17:54:11.454Z,17.50
2022-09-09T17:56:40.098Z,17.50
2022-09-09T17:59:10.205Z,17.50
2022-09-09T18:01:39.591Z,17.50
2022-09-09T18:04:09.313Z,17.40
2022-09-09T18:06:39.477Z,17.40
2022-09-09T18:09:13.321Z,17.30
2022-09-09T18:11:45.888Z,17.30
2022-09-09T18:14:17.498Z,17.30
2022-09-09T18:16:44.806Z,17.30
2022-09-09T18:19:13.874Z,17.30
2022-09-09T18:21:42.697Z,17.30
2022-09-09T18:24:11.734Z,17.30
2022-09-09T18:26:40.221Z,17.30
2022-09-09T18:29:11.182Z,17.20
2022-09-09T18:31:38.349Z,17.30
2022-09-09T18:34:07.870Z,17.20
2022-09-09T18:36:44.375Z,17.20
2022-09-09T18:39:13.286Z,17.20
2022-09-09T18:41:47.227Z,17.20
2022-09-09T18:44:16.884Z,17.20
2022-09-09T18:46:44.768Z,17.20
2022-09-09T18:49:12.094Z,17.20
2022-09-09T18:51:41.169Z,17.20
2022-09-09T18:54:19.786Z,17.10
2022-09-09T18:56:47.523Z,17.10
2022-09-09T18:59:21.256Z,17.10
2022-09-09T19:01:50.009Z,17.00
2022-09-09T19:04:17.680Z,17.00
2022-09-09T19:06:47.280Z,17.00
2022-09-09T19:09:17.235Z,16.90
2022-09-09T19:11:45.572Z,16.90
2022-09-09T19:14:15.695Z,16.90
2022-09-09T19:16:45.272Z,16.90
2022-09-09T19:19:18.725Z,16.80
2022-09-09T19:21:45.678Z,16.80
2022-09-09T19:24:21.002Z,16.80
2022-09-09T19:26:52.230Z,16.80
2022-09-09T19:29:22.236Z,16.80
2022-09-09T19:32:18.580Z,16.70
2022-09-09T19:34:37.583Z,16.70
2022-09-09T19:37:04.908Z,16.70
2022-09-09T19:39:34.398Z,16.60
2022-09-09T19:42:01.873Z,16.60
2022-09-09T19:44:28.896Z,16.60
2022-09-09T19:46:55.930Z,16.50
2022-09-09T19:49:22.794Z,16.50
2022-09-09T19:51:49.676Z,16.50
2022-09-09T19:54:16.551Z,16.40
2022-09-09T19:56:44.215Z,16.40
2022-09-09T19:59:12.881Z,16.30
2022-09-09T20:01:47.464Z,16.30
2022-09-09T20:04:15.362Z,16.30
2022-09-09T20:06:44.349Z,16.20
2022-09-09T20:09:17.195Z,16.20
2022-09-09T20:11:45.676Z,16.20
2022-09-09T20:14:13.221Z,16.20
2022-09-09T20:16:40.179Z,16.10
2022-09-09T20:19:10.231Z,16.10
2022-09-09T20:21:47.866Z,16.10
2022-09-09T20:24:16.891Z,16.00
2022-09-09T20:26:44.548Z,16.00
2022-09-09T20:29:16.166Z,15.90
2022-09-09T20:31:44.318Z,15.90
2022-09-09T20:34:15.016Z,15.80
2022-09-09T20:36:42.997Z,15.80
2022-09-09T20:39:11.890Z,15.70
2022-09-09T20:41:40.180Z,15.70
2022-09-09T20:44:12.370Z,15.70
2022-09-09T20:46:41.334Z,15.60
2022-09-09T20:49:09.967Z,15.50
2022-09-09T20:51:37.175Z,15.50
2022-09-09T20:54:08.550Z,15.40
2022-09-09T20:56:39.255Z,15.40
2022-09-09T20:59:15.234Z,15.40
2022-09-09T21:01:42.349Z,15.30
2022-09-09T21:04:09.791Z,15.30
2022-09-09T21:06:37.152Z,15.20
2022-09-09T21:09:04.672Z,15.20
2022-09-09T21:11:31.926Z,15.20
2022-09-09T21:13:59.612Z,15.20
2022-09-09T21:16:26.584Z,15.10
2022-09-09T21:18:53.521Z,15.10
2022-09-09T21:21:21.131Z,15.10
2022-09-09T21:23:49.246Z,15.00
2022-09-09T21:26:17.974Z,15.00
2022-09-09T21:28:45.298Z,15.00
2022-09-09T21:31:27.009Z,15.00
2022-09-09T21:33:54.520Z,14.90
2022-09-09T21:36:21.325Z,14.90
2022-09-09T21:38:48.123Z,14.90
2022-09-09T21:41:16.355Z,14.90
2022-09-09T21:43:44.803Z,14.80
2022-09-09T21:46:14.809Z,14.80
2022-09-09T21:48:42.202Z,14.80
2022-09-09T21:51:14.698Z,14.80
2022-09-09T21:53:41.852Z,14.80
2022-09-09T21:56:13.112Z,14.70
2022-09-09T21:58:41.172Z,14.70
2022-09-09T22:01:14.560Z,14.70
2022-09-09T22:03:42.752Z,14.60
2022-09-09T22:06:12.808Z,14.60
2022-09-09T22:08:40.066Z,14.60
2022-09-09T22:11:12.616Z,14.60
2022-09-09T22:13:39.408Z,14.60
2022-09-09T22:16:08.067Z,14.50
2022-09-09T22:18:35.500Z,14.50
2022-09-09T22:21:08.352Z,14.50
2022-09-09T22:23:36.685Z,14.50
2022-09-09T22:26:04.915Z,14.40
2022-09-09T22:28:33.968Z,14.40
2022-09-09T22:31:01.474Z,14.50
2022-09-09T22:33:28.525Z,14.50
2022-09-09T22:35:55.584Z,14.60
2022-09-09T22:38:22.683Z,14.60
2022-09-09T22:40:49.572Z,14.60
2022-09-09T22:43:21.722Z,14.60
2022-09-09T22:45:49.957Z,14.60
2022-09-09T22:48:17.041Z,14.50
2022-09-09T22:50:44.813Z,14.50
2022-09-09T22:53:14.873Z,14.50
2022-09-09T22:55:41.948Z,14.40
2022-09-09T22:58:09.699Z,14.40
2022-09-09T23:00:40.808Z,14.30
2022-09-09T23:03:07.891Z,14.30
2022-09-09T23:05:36.184Z,14.30
2022-09-09T23:08:03.036Z,14.30
2022-09-09T23:10:33.403Z,14.20
2022-09-09T23:13:00.439Z,14.30
2022-09-09T23:15:29.307Z,14.30
2022-09-09T23:17:56.056Z,14.30
2022-09-09T23:20:24.161Z,14.40
2022-09-09T23:22:50.987Z,14.40
2022-09-09T23:25:17.824Z,14.40
2022-09-09T23:27:45.552Z,14.40
2022-09-09T23:30:12.705Z,14.50
2022-09-09T23:32:39.460Z,14.50
2022-09-09T23:35:07.409Z,14.50
2022-09-09T23:37:34.893Z,14.50
2022-09-09T23:40:02.014Z,14.60
2022-09-09T23:42:33.385Z,14.60
2022-09-09T23:45:00.251Z,14.60
2022-09-09T23:47:27.554Z,14.60
2022-09-09T23:49:54.331Z,14.60
2022-09-09T23:52:22.075Z,14.60
2022-09-09T23:54:50.006Z,14.60
2022-09-09T23:57:16.756Z,14.60
2022-09-09T23:59:43.512Z,14.60
